Time;durP1;ratioP1;P1;durP2;ratioP2;P2;SDS_P1;SDS_P2;PMS_P1;PMS_P2;Temp;Humidity;BMP_temperature;BMP_pressure;BME280_temperature;BME280_humidity;BME280_pressure;Samples;Min_cycle;Max_cycle;Signal;HPM_P1;HPM_P2
2023/06/23 03:36:09;;;;;;;6.53;5.93;;;20.60;99.90;;;;;;2475409;29;21328;-73
2023/06/23 03:38:47;;;;;;;6.27;5.67;;;20.40;99.90;;;;;;4969494;28;20299;-74
2023/06/23 03:41:15;;;;;;;6.77;6.07;;;20.30;99.90;;;;;;4969210;28;20295;-74
2023/06/23 03:43:50;;;;;;;6.87;6.27;;;20.30;99.90;;;;;;4969602;28;20293;-74
2023/06/23 03:46:22;;;;;;;6.60;6.00;;;20.40;99.90;;;;;;4969277;28;20772;-74
2023/06/23 03:48:52;;;;;;;5.93;5.50;;;20.50;99.90;;;;;;4984241;28;20289;-74
2023/06/23 03:51:23;;;;;;;7.90;6.93;;;20.50;99.90;;;;;;4989344;28;20240;-74
2023/06/23 03:53:52;;;;;;;6.40;6.00;;;20.50;99.90;;;;;;4989121;28;20203;-74
2023/06/23 03:56:20;;;;;;;6.70;6.20;;;20.50;99.90;;;;;;4973797;28;20307;-74
2023/06/23 03:58:49;;;;;;;6.70;6.20;;;20.40;99.90;;;;;;4969218;28;20259;-74
2023/06/23 04:01:19;;;;;;;6.97;6.47;;;20.40;99.90;;;;;;4968522;28;20662;-74
2023/06/23 04:03:48;;;;;;;7.83;6.53;;;20.20;99.90;;;;;;4968792;28;20211;-74
2023/06/23 04:06:15;;;;;;;6.63;6.13;;;20.10;99.90;;;;;;4975954;28;20336;-74
2023/06/23 04:08:45;;;;;;;7.20;6.60;;;20.20;99.90;;;;;;5007816;28;20630;-74
2023/06/23 04:11:15;;;;;;;7.03;6.50;;;20.30;99.90;;;;;;5008021;28;20294;-74
2023/06/23 04:13:43;;;;;;;7.77;7.17;;;20.40;99.90;;;;;;4988529;28;20297;-74
2023/06/23 04:16:11;;;;;;;8.07;7.47;;;20.40;99.90;;;;;;4988120;28;20305;-74
2023/06/23 04:18:40;;;;;;;7.03;6.50;;;20.50;99.90;;;;;;4988627;28;20229;-74
2023/06/23 04:21:07;;;;;;;8.63;7.83;;;20.50;99.90;;;;;;4988551;28;20327;-74
2023/06/23 04:23:36;;;;;;;7.80;7.10;;;20.50;99.90;;;;;;4981753;28;20297;-74
2023/06/23 04:26:07;;;;;;;7.10;6.50;;;20.40;99.90;;;;;;4981560;28;20234;-74
2023/06/23 04:28:35;;;;;;;7.20;6.70;;;20.50;99.90;;;;;;4988103;28;20202;-74
2023/06/23 04:31:07;;;;;;;7.83;7.17;;;20.50;99.90;;;;;;4987993;28;20222;-74
2023/06/23 04:33:34;;;;;;;8.63;6.93;;;20.60;99.90;;;;;;4988181;28;20220;-74
2023/06/23 04:36:09;;;;;;;7.63;7.00;;;20.60;99.90;;;;;;4990056;28;20260;-74
2023/06/23 04:38:38;;;;;;;8.20;7.50;;;20.60;99.90;;;;;;5007138;28;20247;-75
2023/06/23 04:41:11;;;;;;;7.38;6.88;;;20.60;99.90;;;;;;5007406;28;20201;-74
2023/06/23 04:43:42;;;;;;;8.20;7.20;;;20.60;99.90;;;;;;5004096;28;20198;-74
2023/06/23 04:46:15;;;;;;;8.43;7.73;;;20.70;99.90;;;;;;4987355;28;20317;-75
2023/06/23 04:48:47;;;;;;;7.73;7.13;;;20.70;99.90;;;;;;4988040;28;20201;-74
2023/06/23 04:51:16;;;;;;;7.43;6.80;;;20.70;99.90;;;;;;4986829;28;20205;-74
2023/06/23 04:53:48;;;;;;;7.60;6.97;;;20.70;99.90;;;;;;4987625;28;20212;-74
2023/06/23 04:56:21;;;;;;;7.40;6.80;;;20.60;99.90;;;;;;4987955;28;20222;-74
2023/06/23 04:58:53;;;;;;;7.47;6.73;;;20.70;99.90;;;;;;4987251;28;20230;-75
2023/06/23 05:01:20;;;;;;;7.97;7.13;;;20.60;99.90;;;;;;4987632;28;20565;-74
2023/06/23 05:03:49;;;;;;;8.47;7.67;;;20.70;99.90;;;;;;4987687;28;20294;-74
2023/06/23 05:06:18;;;;;;;8.30;7.40;;;20.70;99.90;;;;;;4993880;28;20677;-74
2023/06/23 05:08:49;;;;;;;6.88;6.38;;;20.70;99.90;;;;;;4987613;28;20317;-74
2023/06/23 05:11:21;;;;;;;8.70;7.10;;;20.70;99.90;;;;;;4987360;28;20210;-74
2023/06/23 05:13:49;;;;;;;7.37;6.47;;;20.60;99.90;;;;;;4987314;28;20205;-74
2023/06/23 05:16:19;;;;;;;7.83;7.23;;;20.60;99.90;;;;;;4986938;28;20221;-75
2023/06/23 05:18:47;;;;;;;7.35;6.75;;;20.60;99.90;;;;;;4986855;28;20214;-75
2023/06/23 05:21:17;;;;;;;7.30;6.63;;;20.60;99.90;;;;;;4987022;28;20214;-75
2023/06/23 05:23:45;;;;;;;7.47;6.93;;;20.70;99.90;;;;;;4987194;28;20233;-75
2023/06/23 05:26:14;;;;;;;7.83;7.23;;;20.70;99.90;;;;;;4986725;28;20670;-73
2023/06/23 05:28:44;;;;;;;7.60;7.00;;;20.70;99.90;;;;;;4987031;28;20217;-73
2023/06/23 05:31:13;;;;;;;6.90;6.40;;;20.60;99.90;;;;;;4986634;28;20301;-74
2023/06/23 05:33:42;;;;;;;7.57;6.93;;;20.60;99.90;;;;;;4987272;28;20245;-74
2023/06/23 05:36:12;;;;;;;8.00;7.30;;;20.60;99.90;;;;;;4989772;28;20221;-74
2023/06/23 05:38:42;;;;;;;7.83;7.13;;;20.60;99.90;;;;;;5006744;28;20202;-74
2023/06/23 05:41:09;;;;;;;9.17;8.27;;;20.60;99.90;;;;;;5006851;28;20280;-74
2023/06/23 05:43:36;;;;;;;8.47;7.63;;;20.60;99.90;;;;;;5006589;28;20209;-74
2023/06/23 05:46:10;;;;;;;11.23;8.68;;;20.60;99.90;;;;;;5006260;28;20684;-74
2023/06/23 05:48:42;;;;;;;9.00;8.20;;;20.60;99.90;;;;;;4992141;28;20628;-74
2023/06/23 05:51:15;;;;;;;8.40;7.60;;;20.50;99.90;;;;;;4986806;28;20685;-74
2023/06/23 05:53:44;;;;;;;8.70;7.77;;;20.60;99.90;;;;;;4986873;28;20499;-74
2023/06/23 05:56:16;;;;;;;9.37;7.43;;;20.50;99.90;;;;;;4986820;28;20295;-74
2023/06/23 05:58:51;;;;;;;8.10;7.35;;;20.50;99.90;;;;;;4986919;28;20237;-74
2023/06/23 06:01:23;;;;;;;7.87;7.27;;;20.60;99.90;;;;;;4986829;28;20201;-74
2023/06/23 06:04:00;;;;;;;7.73;7.10;;;20.50;99.90;;;;;;4992267;28;20280;-74
2023/06/23 06:06:29;;;;;;;8.30;7.50;;;20.60;99.90;;;;;;4986108;28;20625;-74
2023/06/23 06:08:57;;;;;;;8.20;7.60;;;20.50;99.90;;;;;;4986867;28;20297;-73
2023/06/23 06:11:26;;;;;;;8.73;7.93;;;20.60;99.90;;;;;;4986550;28;20257;-74
2023/06/23 06:13:53;;;;;;;8.43;7.67;;;20.50;99.90;;;;;;4987048;28;20548;-74
2023/06/23 06:16:23;;;;;;;8.53;7.73;;;20.60;99.90;;;;;;4986173;28;20312;-74
2023/06/23 06:18:53;;;;;;;8.77;8.07;;;20.60;99.90;;;;;;4986786;28;20220;-74
2023/06/23 06:21:21;;;;;;;9.20;8.40;;;20.60;99.90;;;;;;4986378;28;20206;-74
2023/06/23 06:23:49;;;;;;;9.73;7.93;;;20.60;99.90;;;;;;4976831;28;20646;-74
2023/06/23 06:26:18;;;;;;;8.53;7.83;;;20.30;99.90;;;;;;4966548;28;20270;-74
2023/06/23 06:28:47;;;;;;;8.87;8.17;;;20.30;99.90;;;;;;4967022;28;20254;-74
2023/06/23 06:31:16;;;;;;;8.10;7.40;;;20.20;99.90;;;;;;4969080;28;20210;-74
2023/06/23 06:33:47;;;;;;;10.93;7.10;;;20.30;99.90;;;;;;4970829;28;20302;-74
2023/06/23 06:36:16;;;;;;;7.97;7.20;;;20.40;99.90;;;;;;4974263;28;20202;-74
2023/06/23 06:38:45;;;;;;;7.67;7.00;;;20.50;99.90;;;;;;4990660;28;20203;-74
2023/06/23 06:41:13;;;;;;;8.20;7.50;;;20.40;99.90;;;;;;4990198;28;20293;-74
2023/06/23 06:43:40;;;;;;;11.20;8.67;;;20.40;99.90;;;;;;4990237;28;20206;-74
2023/06/23 06:46:08;;;;;;;9.73;8.57;;;20.50;99.90;;;;;;4989542;28;20213;-74
2023/06/23 06:48:37;;;;;;;8.00;7.30;;;20.40;99.90;;;;;;4989715;28;20266;-74
2023/06/23 06:51:07;;;;;;;8.60;7.90;;;20.40;99.90;;;;;;4990270;28;20300;-74
2023/06/23 06:53:34;;;;;;;8.20;7.50;;;20.50;99.90;;;;;;4989662;28;20218;-74
2023/06/23 06:56:01;;;;;;;9.20;8.20;;;20.50;99.90;;;;;;4989936;28;20226;-74
2023/06/23 06:58:28;;;;;;;9.10;8.40;;;20.50;99.90;;;;;;4996681;28;20672;-74
2023/06/23 07:00:56;;;;;;;8.23;7.63;;;20.50;99.90;;;;;;4989432;28;20206;-74
2023/06/23 07:03:24;;;;;;;7.68;7.07;;;20.60;99.90;;;;;;4989579;28;20211;-74
2023/06/23 07:05:51;;;;;;;20.57;11.20;;;20.70;99.90;;;;;;4990218;28;20305;-75
2023/06/23 07:08:19;;;;;;;10.95;9.85;;;20.70;99.90;;;;;;4989537;28;20517;-74
2023/06/23 07:10:46;;;;;;;12.73;9.85;;;20.70;99.90;;;;;;4990011;28;20206;-74
2023/06/23 07:13:13;;;;;;;12.25;9.60;;;20.70;99.90;;;;;;4989547;28;20581;-74
2023/06/23 07:15:40;;;;;;;11.13;9.93;;;20.80;99.90;;;;;;4989292;28;20836;-74
2023/06/23 07:18:07;;;;;;;16.15;11.18;;;20.80;99.90;;;;;;4989899;28;20285;-74
2023/06/23 07:20:34;;;;;;;12.83;10.10;;;20.80;99.90;;;;;;4989406;28;20214;-74
2023/06/23 07:23:00;;;;;;;10.18;9.27;;;20.80;99.90;;;;;;4989368;28;20338;-74
2023/06/23 07:25:29;;;;;;;9.60;8.90;;;20.80;99.90;;;;;;4989343;28;20297;-74
2023/06/23 07:27:56;;;;;;;9.67;8.87;;;20.80;99.90;;;;;;4989475;28;20237;-74
2023/06/23 07:30:23;;;;;;;9.20;8.50;;;20.70;99.90;;;;;;4989054;28;20272;-75
2023/06/23 07:32:49;;;;;;;9.82;9.02;;;20.80;99.90;;;;;;4989246;28;20206;-74
2023/06/23 07:35:16;;;;;;;8.80;8.10;;;20.80;99.90;;;;;;4989236;28;20289;-74
2023/06/23 07:37:43;;;;;;;8.70;8.10;;;20.80;99.90;;;;;;4988917;28;20293;-74
2023/06/23 07:40:11;;;;;;;8.67;7.97;;;20.80;99.90;;;;;;4989313;28;20326;-74
2023/06/23 07:42:39;;;;;;;9.45;8.75;;;20.90;99.90;;;;;;4988946;28;20205;-74
2023/06/23 07:45:07;;;;;;;9.40;8.57;;;20.80;99.90;;;;;;4989366;28;20301;-74
2023/06/23 07:47:34;;;;;;;9.00;8.37;;;20.80;99.90;;;;;;4989056;28;20230;-74
2023/06/23 07:50:01;;;;;;;9.53;8.70;;;20.80;99.90;;;;;;4989131;28;20220;-74
2023/06/23 07:52:29;;;;;;;9.07;8.27;;;20.70;99.90;;;;;;4988760;28;20244;-74
2023/06/23 07:54:56;;;;;;;9.47;8.60;;;20.70;99.90;;;;;;4998553;28;20222;-74
2023/06/23 07:57:22;;;;;;;9.68;8.63;;;20.60;99.90;;;;;;4999212;28;20572;-74
2023/06/23 07:59:51;;;;;;;8.97;8.27;;;20.60;99.90;;;;;;4988805;28;20281;-74
2023/06/23 08:02:18;;;;;;;9.13;8.40;;;20.50;99.90;;;;;;4988920;28;20297;-74
2023/06/23 08:04:44;;;;;;;9.15;8.45;;;20.50;99.90;;;;;;4988943;28;20246;-74
2023/06/23 08:07:11;;;;;;;8.60;8.00;;;20.40;99.90;;;;;;4999631;28;20319;-74
2023/06/23 08:09:38;;;;;;;8.70;8.00;;;20.50;99.90;;;;;;4993766;28;20212;-74
2023/06/23 08:12:06;;;;;;;8.18;7.57;;;20.50;99.90;;;;;;4988722;28;20285;-75
2023/06/23 08:14:34;;;;;;;8.90;8.20;;;20.50;99.90;;;;;;4988369;28;20242;-75
2023/06/23 08:17:02;;;;;;;10.43;8.90;;;20.50;99.90;;;;;;4988425;28;20605;-75
2023/06/23 08:19:30;;;;;;;8.88;8.13;;;20.60;99.90;;;;;;4988494;28;20237;-75
2023/06/23 08:21:57;;;;;;;9.60;8.80;;;20.60;99.90;;;;;;4988282;28;20216;-75
2023/06/23 08:24:23;;;;;;;9.30;8.60;;;20.70;99.90;;;;;;4988181;28;20238;-75
2023/06/23 08:26:50;;;;;;;9.67;8.77;;;20.70;99.90;;;;;;4987978;28;20296;-75
2023/06/23 08:29:17;;;;;;;8.70;7.75;;;20.70;99.90;;;;;;4987546;28;20328;-75
2023/06/23 08:31:44;;;;;;;8.73;7.97;;;20.70;99.90;;;;;;4987778;28;20249;-75
2023/06/23 08:34:12;;;;;;;8.75;8.15;;;20.80;99.90;;;;;;4987806;28;20281;-76
2023/06/23 08:36:39;;;;;;;13.97;12.77;;;20.90;99.90;;;;;;4987930;28;20248;-75
2023/06/23 08:39:06;;;;;;;9.00;8.10;;;20.60;99.90;;;;;;4988140;28;20301;-75
2023/06/23 08:41:35;;;;;;;8.13;7.47;;;20.60;99.90;;;;;;4987981;28;20264;-75
2023/06/23 08:44:02;;;;;;;9.30;8.50;;;20.60;99.90;;;;;;4987739;28;20734;-75
2023/06/23 08:46:32;;;;;;;9.17;8.53;;;20.60;99.90;;;;;;4987751;28;20238;-75
2023/06/23 08:49:06;;;;;;;9.50;8.70;;;20.60;99.90;;;;;;4987705;28;20921;-76
2023/06/23 08:51:34;;;;;;;10.30;9.40;;;20.60;99.90;;;;;;4987801;28;20237;-75
2023/06/23 08:54:02;;;;;;;9.17;8.57;;;20.60;99.90;;;;;;4987177;28;20329;-75
2023/06/23 08:56:29;;;;;;;10.47;9.67;;;20.60;99.90;;;;;;4987526;28;20284;-75
2023/06/23 08:58:56;;;;;;;9.50;8.80;;;20.70;99.90;;;;;;4987727;28;20214;-75
2023/06/23 09:01:23;;;;;;;10.10;9.23;;;20.60;99.90;;;;;;4987131;28;20213;-75
2023/06/23 09:03:51;;;;;;;9.23;8.45;;;20.60;99.90;;;;;;4987272;28;20245;-75
2023/06/23 09:06:18;;;;;;;9.40;8.80;;;20.70;99.90;;;;;;4987516;28;20304;-75
2023/06/23 09:08:46;;;;;;;8.73;8.13;;;20.70;99.90;;;;;;4987366;28;20233;-74
2023/06/23 09:11:13;;;;;;;9.07;8.37;;;20.70;99.90;;;;;;4987158;28;20214;-75
2023/06/23 09:13:45;;;;;;;8.33;7.63;;;20.60;99.90;;;;;;4987520;28;20226;-75
2023/06/23 09:16:13;;;;;;;8.67;7.97;;;20.60;99.90;;;;;;4986837;28;20316;-75
2023/06/23 09:18:41;;;;;;;9.05;8.15;;;20.60;99.90;;;;;;4987404;28;20228;-75
2023/06/23 09:21:08;;;;;;;8.77;8.07;;;20.60;99.90;;;;;;4987493;28;20214;-75
2023/06/23 09:23:36;;;;;;;8.87;8.03;;;20.60;99.90;;;;;;4978602;28;20214;-75
2023/06/23 09:26:04;;;;;;;9.23;8.53;;;20.60;99.90;;;;;;4992863;28;20296;-75
2023/06/23 09:28:35;;;;;;;9.17;8.37;;;20.60;99.90;;;;;;5006641;28;20233;-75
2023/06/23 09:31:09;;;;;;;9.73;8.90;;;20.50;99.90;;;;;;5006508;28;20205;-75
2023/06/23 09:33:45;;;;;;;9.95;9.18;;;20.50;99.90;;;;;;5006920;28;20221;-75
2023/06/23 09:36:12;;;;;;;10.02;9.23;;;20.50;99.90;;;;;;5006505;28;20280;-74
2023/06/23 09:38:40;;;;;;;10.63;9.93;;;20.50;99.90;;;;;;5006557;28;20193;-75
2023/06/23 09:41:12;;;;;;;11.17;10.30;;;20.20;99.90;;;;;;4992534;28;20289;-75
2023/06/23 09:43:41;;;;;;;12.00;11.10;;;20.20;99.90;;;;;;4986915;28;20877;-75
2023/06/23 09:46:09;;;;;;;12.07;11.27;;;20.00;99.90;;;;;;4986578;28;20296;-75
2023/06/23 09:48:36;;;;;;;12.97;11.77;;;19.90;99.90;;;;;;4986770;28;20284;-76
2023/06/23 09:51:04;;;;;;;12.20;11.13;;;20.00;99.90;;;;;;4986371;28;20845;-75
2023/06/23 09:53:33;;;;;;;12.40;11.40;;;20.10;99.90;;;;;;4986214;28;20214;-75
2023/06/23 09:56:03;;;;;;;11.87;10.97;;;20.10;99.90;;;;;;4986779;28;20308;-75
2023/06/23 09:58:37;;;;;;;12.80;11.70;;;20.10;99.90;;;;;;4986058;28;20216;-75
2023/06/23 10:01:06;;;;;;;12.47;11.47;;;20.10;99.90;;;;;;4986653;28;20206;-75
2023/06/23 10:03:41;;;;;;;12.10;11.23;;;20.20;99.90;;;;;;4986667;28;20206;-75
2023/06/23 10:06:08;;;;;;;11.27;10.47;;;20.10;99.90;;;;;;4990310;28;20208;-75
2023/06/23 10:08:39;;;;;;;10.43;9.73;;;20.20;99.90;;;;;;4990703;28;20277;-75
2023/06/23 10:11:07;;;;;;;9.83;9.13;;;20.10;99.90;;;;;;4990423;28;20625;-75
2023/06/23 10:13:36;;;;;;;8.73;8.20;;;20.20;99.90;;;;;;4989919;28;20325;-75
2023/06/23 10:16:03;;;;;;;7.70;7.20;;;20.30;99.90;;;;;;4989691;28;20317;-75
2023/06/23 10:18:31;;;;;;;7.60;7.10;;;20.30;99.90;;;;;;4989868;28;20377;-75
2023/06/23 10:20:58;;;;;;;8.90;7.13;;;20.30;99.90;;;;;;4990347;28;20213;-75
2023/06/23 10:23:26;;;;;;;8.00;7.30;;;20.40;99.90;;;;;;4990292;28;20293;-75
2023/06/23 10:25:55;;;;;;;7.40;6.70;;;20.50;99.90;;;;;;4990788;28;20288;-75
2023/06/23 10:28:23;;;;;;;7.30;6.47;;;20.40;99.90;;;;;;4989987;28;20636;-75
2023/06/23 10:30:52;;;;;;;6.07;5.67;;;20.40;99.90;;;;;;4990471;28;20478;-76
2023/06/23 10:33:21;;;;;;;6.23;5.83;;;20.40;99.90;;;;;;4990339;28;20642;-75
2023/06/23 10:35:48;;;;;;;6.53;5.67;;;20.40;99.90;;;;;;4990664;28;20220;-75
2023/06/23 10:38:22;;;;;;;5.27;4.83;;;20.50;99.90;;;;;;4989756;28;20265;-75
2023/06/23 10:40:52;;;;;;;7.03;5.70;;;20.50;99.90;;;;;;4990602;28;20229;-75
2023/06/23 10:43:20;;;;;;;5.87;5.27;;;20.50;99.90;;;;;;4996793;28;20241;-75
2023/06/23 10:45:48;;;;;;;4.93;4.53;;;20.50;99.90;;;;;;5003547;28;20221;-76
2023/06/23 10:48:18;;;;;;;5.40;4.90;;;20.30;99.90;;;;;;4989788;28;20800;-75
2023/06/23 10:50:47;;;;;;;5.60;4.63;;;20.30;99.90;;;;;;4990498;28;20216;-75
2023/06/23 10:53:18;;;;;;;7.07;5.97;;;20.40;99.90;;;;;;4989668;28;20298;-75
2023/06/23 10:55:47;;;;;;;9.63;7.70;;;20.40;99.90;;;;;;4989519;28;20677;-75
2023/06/23 10:58:16;;;;;;;21.27;9.20;;;20.30;99.90;;;;;;4989378;28;20238;-75
2023/06/23 11:00:46;;;;;;;7.45;6.85;;;20.30;99.90;;;;;;4989469;28;20743;-75
2023/06/23 11:03:29;;;;;;;14.17;10.27;;;20.30;99.90;;;;;;4989430;28;20317;-75
2023/06/23 11:05:57;;;;;;;10.60;9.60;;;20.40;99.90;;;;;;4990847;28;20281;-75
2023/06/23 11:08:32;;;;;;;9.80;9.03;;;20.30;99.90;;;;;;5008910;28;20328;-75
2023/06/23 11:11:01;;;;;;;10.27;9.57;;;20.30;99.90;;;;;;5009193;28;20667;-75
2023/06/23 11:13:41;;;;;;;10.73;9.97;;;20.20;99.90;;;;;;5009258;28;20293;-75
2023/06/23 11:16:15;;;;;;;11.00;10.10;;;20.10;99.90;;;;;;5008098;28;20654;-76
2023/06/23 11:18:51;;;;;;;10.73;9.83;;;20.10;99.90;;;;;;4995563;28;20494;-75
2023/06/23 11:21:19;;;;;;;10.37;9.57;;;20.10;99.90;;;;;;4989415;28;20289;-75
2023/06/23 11:24:08;;;;;;;10.30;9.50;;;20.10;99.90;;;;;;4989152;28;20226;-75
2023/06/23 11:26:36;;;;;;;9.03;8.40;;;20.10;99.90;;;;;;4989443;28;20309;-75
2023/06/23 11:29:10;;;;;;;9.70;8.90;;;20.10;99.90;;;;;;4988843;28;20724;-76
2023/06/23 11:32:06;;;;;;;9.53;8.77;;;20.20;99.90;;;;;;4989076;28;20202;-76
2023/06/23 11:34:50;;;;;;;8.30;7.70;;;20.30;99.90;;;;;;4989123;28;20571;-75
2023/06/23 11:37:17;;;;;;;7.70;6.87;;;20.30;99.90;;;;;;4988899;28;20265;-75
2023/06/23 11:39:44;;;;;;;7.20;6.67;;;20.40;99.90;;;;;;4997518;28;20252;-75
2023/06/23 11:42:11;;;;;;;7.30;6.73;;;20.30;99.90;;;;;;5000787;28;20761;-75
2023/06/23 11:44:39;;;;;;;6.87;6.47;;;20.40;99.90;;;;;;4988970;28;20207;-77
2023/06/23 11:47:07;;;;;;;6.93;6.33;;;20.50;99.90;;;;;;4988979;28;20210;-75
2023/06/23 11:49:36;;;;;;;6.40;5.90;;;20.50;99.90;;;;;;4988972;28;20242;-75
2023/06/23 11:52:03;;;;;;;6.00;5.60;;;20.60;99.90;;;;;;4989005;28;20214;-75
2023/06/23 11:54:32;;;;;;;6.13;5.73;;;20.50;99.90;;;;;;4988411;28;20217;-75
2023/06/23 11:57:00;;;;;;;6.20;5.70;;;20.50;99.90;;;;;;4988653;28;20210;-75
2023/06/23 11:59:33;;;;;;;7.67;5.77;;;20.50;99.90;;;;;;4988645;28;20720;-75
2023/06/23 12:02:00;;;;;;;6.40;5.83;;;20.50;99.90;;;;;;4988708;28;20289;-74
2023/06/23 12:04:29;;;;;;;6.90;6.20;;;20.30;99.90;;;;;;4988491;28;20739;-75
2023/06/23 12:06:57;;;;;;;6.70;6.10;;;20.20;99.90;;;;;;4988621;28;20220;-75
2023/06/23 12:09:24;;;;;;;7.13;6.10;;;20.20;99.90;;;;;;4988589;28;20238;-74
2023/06/23 12:11:52;;;;;;;7.40;6.70;;;20.30;99.90;;;;;;4988180;28;20675;-75
2023/06/23 12:14:19;;;;;;;6.67;6.10;;;20.30;99.90;;;;;;4988007;28;20305;-75
2023/06/23 12:16:46;;;;;;;6.40;5.80;;;20.20;99.90;;;;;;4988116;28;20317;-75
2023/06/23 12:19:13;;;;;;;6.00;5.60;;;20.20;99.90;;;;;;4987851;28;20214;-76
2023/06/23 12:21:43;;;;;;;6.30;5.67;;;20.20;99.90;;;;;;4988447;28;20316;-75
2023/06/23 12:24:11;;;;;;;5.20;4.70;;;20.10;99.90;;;;;;4988242;28;20209;-75
2023/06/23 12:26:41;;;;;;;6.17;5.40;;;20.10;99.90;;;;;;4971085;28;20222;-76
2023/06/23 12:29:09;;;;;;;5.27;4.77;;;20.00;99.90;;;;;;4968976;28;20222;-76
2023/06/23 12:31:37;;;;;;;5.60;4.57;;;20.00;99.90;;;;;;4968596;28;20257;-76
2023/06/23 12:34:04;;;;;;;5.17;4.77;;;20.00;99.90;;;;;;4968874;28;20246;-75
2023/06/23 12:36:31;;;;;;;5.93;4.60;;;20.10;99.90;;;;;;4975642;28;20277;-75
2023/06/23 12:39:01;;;;;;;5.20;4.80;;;20.10;99.90;;;;;;4987888;28;20322;-75
2023/06/23 12:41:29;;;;;;;4.90;4.50;;;20.00;99.90;;;;;;4987922;28;20560;-75
2023/06/23 12:43:59;;;;;;;6.77;5.23;;;19.90;99.90;;;;;;4987707;28;20418;-75
2023/06/23 12:46:27;;;;;;;5.00;4.50;;;19.80;99.90;;;;;;4987323;28;20214;-75
2023/06/23 12:48:55;;;;;;;5.30;4.80;;;19.70;99.90;;;;;;4987776;28;20296;-76
2023/06/23 12:51:32;;;;;;;4.33;3.93;;;19.80;99.90;;;;;;4987976;28;20206;-75
2023/06/23 12:54:01;;;;;;;5.27;4.50;;;19.80;99.90;;;;;;4987429;28;20745;-75
2023/06/23 12:56:28;;;;;;;4.30;3.90;;;19.70;99.90;;;;;;4987378;28;20220;-75
2023/06/23 12:58:55;;;;;;;3.83;3.63;;;19.80;99.90;;;;;;4987508;28;20309;-75
2023/06/23 13:01:24;;;;;;;5.40;4.47;;;19.80;99.90;;;;;;4987341;28;20233;-75
2023/06/23 13:03:51;;;;;;;5.23;4.50;;;19.80;99.90;;;;;;4987321;28;20214;-75
2023/06/23 13:06:18;;;;;;;3.80;3.50;;;19.80;99.90;;;;;;4991476;28;20300;-76
2023/06/23 13:08:45;;;;;;;5.03;4.13;;;19.90;99.90;;;;;;5007090;28;20209;-75
2023/06/23 13:11:14;;;;;;;4.43;4.13;;;19.90;99.90;;;;;;4993215;28;20265;-76
2023/06/23 13:13:40;;;;;;;5.50;4.20;;;19.80;99.90;;;;;;4987369;28;20296;-75
2023/06/23 13:16:07;;;;;;;4.57;4.17;;;19.80;99.90;;;;;;4987376;28;20381;-76
2023/06/23 13:18:34;;;;;;;5.20;4.70;;;19.90;99.90;;;;;;4987359;28;20298;-76
2023/06/23 13:21:01;;;;;;;4.73;4.20;;;19.90;99.90;;;;;;4987780;28;20210;-76
2023/06/23 13:23:28;;;;;;;4.40;4.00;;;19.90;99.90;;;;;;4987045;28;20292;-75
2023/06/23 13:25:55;;;;;;;4.00;3.70;;;19.90;99.90;;;;;;4987260;28;20300;-75
2023/06/23 13:28:23;;;;;;;4.27;4.00;;;19.90;99.90;;;;;;4986770;28;20823;-75
2023/06/23 13:30:50;;;;;;;4.30;3.90;;;19.90;99.90;;;;;;4986692;28;20328;-76
2023/06/23 13:33:19;;;;;;;4.20;3.90;;;19.80;99.90;;;;;;5003458;28;20217;-75
2023/06/23 13:35:46;;;;;;;4.40;4.10;;;19.80;99.90;;;;;;4991526;28;20218;-76
2023/06/23 13:38:12;;;;;;;4.53;4.13;;;19.60;99.90;;;;;;5006266;28;20881;-76
2023/06/23 13:40:39;;;;;;;4.40;4.00;;;19.60;99.90;;;;;;5006054;28;20698;-76
2023/06/23 13:43:06;;;;;;;4.00;3.70;;;19.60;99.90;;;;;;5006665;28;20703;-76
2023/06/23 13:45:34;;;;;;;3.50;3.30;;;19.60;99.90;;;;;;5004957;28;20209;-75
2023/06/23 13:48:01;;;;;;;3.47;3.27;;;19.70;99.90;;;;;;4986776;28;20300;-76
2023/06/23 13:50:28;;;;;;;3.23;3.03;;;19.60;99.90;;;;;;4986968;28;20557;-76
2023/06/23 13:52:55;;;;;;;3.33;3.13;;;19.60;99.90;;;;;;4986717;28;20712;-76
2023/06/23 13:55:22;;;;;;;2.97;2.77;;;19.60;99.90;;;;;;4986496;28;20304;-77
2023/06/23 13:57:49;;;;;;;4.07;3.43;;;19.60;99.90;;;;;;4985254;28;20213;-75
2023/06/23 14:00:16;;;;;;;3.67;3.40;;;19.60;99.90;;;;;;4975571;28;20298;-75
2023/06/23 14:02:45;;;;;;;3.40;3.10;;;19.50;99.90;;;;;;4965833;28;20246;-75
2023/06/23 14:05:14;;;;;;;3.73;3.43;;;19.40;99.90;;;;;;4971956;28;20198;-75
2023/06/23 14:07:41;;;;;;;3.87;3.57;;;19.40;99.90;;;;;;4984210;28;20214;-76
2023/06/23 14:10:09;;;;;;;3.80;3.50;;;19.40;99.90;;;;;;4984426;28;20240;-76
2023/06/23 14:12:36;;;;;;;4.30;3.57;;;19.40;99.90;;;;;;4984859;28;20206;-77
2023/06/23 14:15:03;;;;;;;3.93;3.73;;;19.40;99.90;;;;;;4983766;28;20289;-76
2023/06/23 14:17:30;;;;;;;4.80;3.50;;;19.40;99.90;;;;;;4984546;28;20202;-77
2023/06/23 14:19:59;;;;;;;4.10;3.80;;;19.40;99.90;;;;;;4984379;28;20202;-77
2023/06/23 14:22:25;;;;;;;6.10;3.50;;;19.40;99.90;;;;;;4984081;28;20212;-76
2023/06/23 14:24:52;;;;;;;4.33;3.93;;;19.40;99.90;;;;;;4984947;28;20638;-77
2023/06/23 14:27:19;;;;;;;4.63;3.73;;;19.40;99.90;;;;;;4984690;28;20297;-77
2023/06/23 14:29:46;;;;;;;3.80;3.50;;;19.50;99.90;;;;;;4985088;28;20237;-76
2023/06/23 14:32:13;;;;;;;3.97;3.60;;;19.50;99.90;;;;;;4984228;28;20207;-76
2023/06/23 14:34:40;;;;;;;5.20;4.70;;;19.50;99.90;;;;;;4979270;28;20290;-77
2023/06/23 14:37:08;;;;;;;4.00;3.70;;;19.60;99.90;;;;;;4984609;28;20242;-77
2023/06/23 14:39:35;;;;;;;4.73;4.33;;;19.60;99.90;;;;;;4977329;28;20316;-77
2023/06/23 14:42:02;;;;;;;7.03;4.43;;;19.60;99.90;;;;;;4982490;28;20631;-76
2023/06/23 14:44:30;;;;;;;4.80;4.40;;;19.60;99.90;;;;;;4983850;28;20661;-77
2023/06/23 14:46:57;;;;;;;5.40;4.90;;;19.60;99.90;;;;;;4984953;28;20631;-76
2023/06/23 14:49:24;;;;;;;4.83;4.43;;;19.70;99.90;;;;;;4984048;28;20234;-76
2023/06/23 14:51:51;;;;;;;5.13;4.73;;;19.70;99.90;;;;;;4987876;28;20285;-76
2023/06/23 14:54:20;;;;;;;5.37;4.60;;;19.70;99.90;;;;;;4989406;28;20324;-76
2023/06/23 14:56:47;;;;;;;4.90;4.60;;;19.70;99.90;;;;;;4989855;28;20311;-76
2023/06/23 14:59:14;;;;;;;4.60;4.17;;;19.70;99.90;;;;;;4989470;28;20293;-76
2023/06/23 15:01:41;;;;;;;4.70;4.30;;;19.70;99.90;;;;;;4989279;28;20216;-76
2023/06/23 15:04:08;;;;;;;5.53;4.63;;;19.70;99.90;;;;;;4972534;28;20700;-76
2023/06/23 15:06:35;;;;;;;5.43;5.03;;;19.70;99.90;;;;;;4988922;28;20201;-76
2023/06/23 15:09:02;;;;;;;4.83;4.50;;;19.70;99.90;;;;;;4989538;28;20239;-76
2023/06/23 15:11:32;;;;;;;5.83;5.17;;;19.60;99.90;;;;;;4989837;28;20297;-76
2023/06/23 15:13:59;;;;;;;5.30;4.80;;;19.60;99.90;;;;;;4989886;28;20233;-77
2023/06/23 15:16:25;;;;;;;5.00;4.60;;;19.60;99.90;;;;;;4988711;28;20258;-76
2023/06/23 15:18:52;;;;;;;6.03;5.30;;;19.60;99.90;;;;;;4989147;28;20406;-76
2023/06/23 15:21:19;;;;;;;5.80;5.03;;;19.70;99.90;;;;;;4989431;28;20289;-76
2023/06/23 15:23:47;;;;;;;4.87;4.47;;;19.70;99.90;;;;;;4989712;28;20296;-76
2023/06/23 15:26:14;;;;;;;6.00;5.50;;;19.70;99.90;;;;;;4992982;28;20613;-76
2023/06/23 15:28:42;;;;;;;5.50;5.10;;;19.70;99.90;;;;;;4989275;28;20312;-76
2023/06/23 15:31:09;;;;;;;5.23;4.93;;;19.80;99.90;;;;;;4988850;28;20240;-76
2023/06/23 15:33:36;;;;;;;5.10;4.70;;;19.80;99.90;;;;;;4989447;28;20206;-76
2023/06/23 15:36:03;;;;;;;6.63;4.67;;;19.80;99.90;;;;;;4989082;28;20238;-76
2023/06/23 15:38:31;;;;;;;5.17;4.70;;;19.80;99.90;;;;;;4988068;28;20287;-76
2023/06/23 15:40:59;;;;;;;7.13;4.30;;;19.90;99.90;;;;;;4988789;28;20735;-76
2023/06/23 15:43:26;;;;;;;4.10;3.80;;;19.90;99.90;;;;;;4988613;28;20264;-77
2023/06/23 15:45:54;;;;;;;4.37;4.07;;;19.90;99.90;;;;;;4988729;28;20658;-76
2023/06/23 15:48:21;;;;;;;4.80;4.30;;;19.90;99.90;;;;;;4988503;28;20739;-77
2023/06/23 15:50:48;;;;;;;4.47;4.17;;;19.80;99.90;;;;;;4988648;28;20246;-76
2023/06/23 15:53:15;;;;;;;5.10;4.60;;;19.80;99.90;;;;;;4988436;28;20660;-76
2023/06/23 15:55:43;;;;;;;5.23;4.83;;;19.70;99.90;;;;;;4988894;28;20217;-77
2023/06/23 15:58:09;;;;;;;4.87;4.50;;;19.70;99.90;;;;;;4989063;28;20641;-76
2023/06/23 16:00:36;;;;;;;4.67;4.37;;;19.60;99.90;;;;;;4988336;28;20246;-76
2023/06/23 16:03:05;;;;;;;4.57;4.30;;;19.60;99.90;;;;;;4988461;28;20241;-76
2023/06/23 16:05:32;;;;;;;4.57;4.17;;;19.70;99.90;;;;;;4978013;28;20642;-76
2023/06/23 16:07:59;;;;;;;6.10;4.30;;;19.70;99.90;;;;;;4986473;28;20229;-76
2023/06/23 16:10:26;;;;;;;4.50;4.20;;;19.70;99.90;;;;;;4988354;28;20292;-76
2023/06/23 16:12:53;;;;;;;5.47;4.67;;;19.70;99.90;;;;;;4988416;28;20228;-76
2023/06/23 16:15:20;;;;;;;5.17;4.70;;;19.70;99.90;;;;;;4988035;28;20226;-77
2023/06/23 16:17:50;;;;;;;4.73;4.30;;;19.70;99.90;;;;;;4988283;28;20301;-76
2023/06/23 16:20:18;;;;;;;7.97;4.37;;;19.70;99.90;;;;;;4990283;28;20697;-76
2023/06/23 16:22:45;;;;;;;5.37;4.73;;;19.70;99.90;;;;;;5004721;28;20216;-77
2023/06/23 16:25:12;;;;;;;5.93;5.37;;;19.70;99.90;;;;;;4974548;28;20213;-77
2023/06/23 16:27:38;;;;;;;5.03;4.60;;;19.60;99.90;;;;;;4980981;28;20225;-75